메인 페이지
METAR-TAF:

METAR-TAF

공항 :

Kos, 그리스

위도: 36-47N, 경도: 027-04E, 고도: 129m

현재 날씨관측

예보는 32분 전, 14:20시(UTC)에 발표되었습니다.
남남동4kt
온도 23°C
습도 65%
기압 1019 hPa
시정 10km 이상
고도 1800ft 상공 구름 조금

METAR: LGKO 221420Z 16004KT 9999 FEW018 23/16 Q1019

시각: 17:52 (14:52 UTC)

예보

예보는 3 시간 52분 전, 11:00시(UTC)에 발표되었습니다.
예보 대상 시간: 22일 12시부터 23일 12시까지 (UTC)
동남동10kt
시정 10km 이상
고도 1600ft 상공 구름 조금
고도 2000ft 상공 구름 보통
확률 40% :
일시적
22일 12시부터 22일 18시까지 (UTC)
시정: 5000m
고도 1500ft 상공 구름 조금
고도 1800ft 상공 구름 조금, 타워링 적운.
고도 2500ft 상공 구름 많음
확률 30% :
일시적
22일 12시부터 22일 15시까지 (UTC)
시정: 3000m
고도 1500ft 상공 구름 보통
고도 1800ft 상공 구름 조금, 적란운.
고도 2000ft 상공 구름 많음
뇌우, 비
전환 중
22일 22시부터 23일 00시까지 (UTC)
북북서10kt

TAF: LGKO 221100Z 2212/2312 12010KT 9999 FEW016 SCT020 PROB40 TEMPO 2212/2218 5000 RA FEW015 FEW018TCU BKN025 PROB30 TEMPO 2212/2215 3000 TSRA SCT015 FEW018CB BKN020 BECMG 2222/2300 33010KT

4,000개 이상의 공항 관측 자료 및 예보 (METAR 및 TAF 보고).

지도상에서 검색 가능한 기상관측소가 노란 점과 빨간 점으로 표시되어 있습니다.

기상관측소 명을 보려면 표시 위로 마우스를 이동하세요.

날씨 관측과 예보를 보려면 클릭하세요.

지도 변경 : 확대하려면 엑스 표시가 있는 녹색 버튼, 축소하려면 빼기 표시가 있는 녹색 버튼, 다음 페이지의 지도를 보려면 녹색 화살표를 클릭하세요.


METAR-TAF: